Time;durP1;ratioP1;P1;durP2;ratioP2;P2;SDS_P1;SDS_P2;PMS_P1;PMS_P2;Temp;Humidity;BMP_temperature;BMP_pressure;BME280_temperature;BME280_humidity;BME280_pressure;Samples;Min_cycle;Max_cycle;Signal;HPM_P1;HPM_P2
2022/04/26 03:36:12;;;;;;;32.00;29.03;;;;;;;9.59;100.00;96262.28;5031626;28;20185;-70
2022/04/26 03:38:43;;;;;;;33.73;30.77;;;;;;;9.60;100.00;96271.72;5033067;28;20233;-70
2022/04/26 03:41:09;;;;;;;32.43;29.60;;;;;;;9.43;100.00;96278.69;5011042;28;20218;-70
2022/04/26 03:43:35;;;;;;;35.77;32.43;;;;;;;9.58;100.00;96276.41;5032424;28;20296;-70
2022/04/26 03:46:01;;;;;;;36.03;32.70;;;;;;;9.58;100.00;96279.78;5032464;28;20229;-70
2022/04/26 03:48:28;;;;;;;35.07;31.63;;;;;;;9.63;100.00;96278.31;5032677;28;20198;-70
2022/04/26 03:50:53;;;;;;;39.83;36.03;;;;;;;9.43;100.00;96273.47;5032590;28;20214;-70
2022/04/26 03:53:18;;;;;;;40.87;36.70;;;;;;;9.33;100.00;96281.13;5032416;28;20234;-70
2022/04/26 03:55:44;;;;;;;38.47;34.80;;;;;;;9.48;100.00;96274.38;5032154;28;20182;-71
2022/04/26 03:58:10;;;;;;;37.83;34.03;;;;;;;9.45;100.00;96276.66;5032586;28;20336;-70
2022/04/26 04:00:36;;;;;;;42.30;37.90;;;;;;;9.49;100.00;96275.97;5014782;28;20590;-70
2022/04/26 04:03:01;;;;;;;42.53;38.30;;;;;;;9.30;100.00;96279.78;5032381;28;20412;-72
2022/04/26 04:05:27;;;;;;;42.40;38.43;;;;;;;9.10;100.00;96293.22;5032838;28;20641;-72
2022/04/26 04:07:52;;;;;;;44.67;40.57;;;;;;;8.92;100.00;96295.94;5032620;28;20306;-72
2022/04/26 04:10:18;;;;;;;46.73;41.77;;;;;;;9.05;100.00;96295.72;5032311;28;20557;-72
2022/04/26 04:12:43;;;;;;;315.13;50.17;;;;;;;9.06;100.00;96292.09;5032376;28;20237;-72
2022/04/26 04:15:09;;;;;;;48.97;44.27;;;;;;;9.18;100.00;96302.53;5032299;28;20615;-72
2022/04/26 04:17:34;;;;;;;49.13;44.40;;;;;;;9.08;100.00;96304.94;5032723;28;20228;-72
2022/04/26 04:20:00;;;;;;;53.67;45.23;;;;;;;9.10;100.00;96298.44;5032669;28;20293;-72
2022/04/26 04:22:25;;;;;;;50.03;43.77;;;;;;;9.17;100.00;96306.16;5032070;28;20167;-72
2022/04/26 04:24:51;;;;;;;48.83;43.73;;;;;;;9.16;100.00;96300.13;5031971;28;20245;-72
2022/04/26 04:27:16;;;;;;;52.73;44.20;;;;;;;9.29;100.00;96306.94;5020810;28;20183;-72
2022/04/26 04:29:41;;;;;;;55.57;43.57;;;;;;;9.20;100.00;96318.75;5031693;28;20191;-72
2022/04/26 04:32:07;;;;;;;48.80;43.80;;;;;;;9.23;100.00;96318.31;5031866;28;20240;-72
2022/04/26 04:34:32;;;;;;;48.20;43.67;;;;;;;9.09;100.00;96322.19;5031940;28;20215;-72
2022/04/26 04:36:57;;;;;;;55.90;50.77;;;;;;;9.31;100.00;96317.16;5014370;28;20191;-72
2022/04/26 04:39:23;;;;;;;59.60;53.83;;;;;;;9.35;100.00;96323.53;5031597;28;20202;-72
2022/04/26 04:41:51;;;;;;;59.17;53.53;;;;;;;9.40;100.00;96324.44;5031891;28;20198;-72
2022/04/26 04:44:18;;;;;;;53.37;48.27;;;;;;;9.38;100.00;96320.44;5034875;28;20210;-72
2022/04/26 04:46:44;;;;;;;55.93;50.27;;;;;;;9.33;100.00;96330.81;5017866;28;20201;-72
2022/04/26 04:49:10;;;;;;;50.93;45.83;;;;;;;9.23;100.00;96328.78;5035209;28;20684;-72
2022/04/26 04:51:35;;;;;;;54.57;49.50;;;;;;;9.33;100.00;96330.81;5035270;28;20289;-72
2022/04/26 04:54:01;;;;;;;48.67;43.63;;;;;;;9.48;100.00;96328.50;5035704;28;20218;-72
2022/04/26 04:56:27;;;;;;;47.97;43.23;;;;;;;9.47;100.00;96325.09;5035142;28;20202;-72
2022/04/26 04:58:54;;;;;;;49.13;44.00;;;;;;;9.50;100.00;96316.81;5034867;28;20593;-72
2022/04/26 05:01:19;;;;;;;42.97;38.80;;;;;;;9.39;100.00;96315.00;5034828;28;20712;-73
2022/04/26 05:03:44;;;;;;;38.27;34.23;;;;;;;9.36;100.00;96312.06;5017101;28;20222;-73
2022/04/26 05:06:14;;;;;;;40.57;36.57;;;;;;;9.27;100.00;96308.19;5035176;28;20183;-73
2022/04/26 05:08:39;;;;;;;38.63;34.60;;;;;;;9.25;100.00;96320.72;5034647;28;20183;-72
2022/04/26 05:11:05;;;;;;;39.20;35.20;;;;;;;9.30;100.00;96315.59;5034974;28;20179;-72
2022/04/26 05:13:31;;;;;;;39.87;35.97;;;;;;;9.24;100.00;96327.75;5035085;28;20293;-72
2022/04/26 05:15:56;;;;;;;40.77;36.10;;;;;;;9.19;100.00;96325.03;5017705;28;20271;-72
2022/04/26 05:18:21;;;;;;;43.17;38.90;;;;;;;9.27;100.00;96326.50;5017809;28;20777;-72
2022/04/26 05:20:47;;;;;;;43.23;38.77;;;;;;;9.35;100.00;96331.38;5035082;28;20205;-73
2022/04/26 05:25:56;;;;;;;44.53;40.10;;;;;;;9.17;100.00;96330.50;5035646;28;20185;-73
2022/04/26 05:28:22;;;;;;;48.27;43.57;;;;;;;9.31;100.00;96323.19;5035019;28;20661;-73
2022/04/26 05:30:47;;;;;;;43.37;39.07;;;;;;;9.35;100.00;96328.78;5034363;28;20183;-72
2022/04/26 05:33:12;;;;;;;38.60;34.53;;;;;;;9.41;100.00;96317.41;5034849;28;20214;-73
2022/04/26 05:35:38;;;;;;;36.00;30.83;;;;;;;9.41;100.00;96323.41;5034531;28;20221;-73
2022/04/26 05:38:03;;;;;;;36.00;32.10;;;;;;;9.51;100.00;96328.06;5034735;28;20667;-74
2022/04/26 05:40:28;;;;;;;37.43;32.07;;;;;;;9.78;100.00;96331.75;5016821;28;20650;-73
2022/04/26 05:42:54;;;;;;;44.37;39.67;;;;;;;9.75;100.00;96324.34;5034901;28;20226;-73
2022/04/26 05:45:19;;;;;;;43.43;39.23;;;;;;;9.71;100.00;96325.84;5016925;28;20523;-72
2022/04/26 05:47:45;;;;;;;43.60;39.00;;;;;;;9.93;100.00;96334.66;5034305;28;20183;-72
2022/04/26 05:50:11;;;;;;;47.13;42.70;;;;;;;10.13;100.00;96329.00;5034715;28;20183;-71
2022/04/26 05:52:37;;;;;;;43.03;38.83;;;;;;;10.08;100.00;96336.78;5018089;28;20178;-73
2022/04/26 05:55:07;;;;;;;45.23;40.83;;;;;;;9.99;100.00;96341.56;5032553;28;20238;-71
2022/04/26 05:57:37;;;;;;;44.07;39.83;;;;;;;9.84;100.00;96349.13;5034370;28;20551;-71
2022/04/26 06:00:05;;;;;;;42.50;38.40;;;;;;;9.79;100.00;96343.81;5029644;28;20520;-71
2022/04/26 06:02:30;;;;;;;42.77;38.53;;;;;;;10.12;100.00;96350.19;5034290;28;20573;-71
2022/04/26 06:04:55;;;;;;;44.07;39.97;;;;;;;9.93;100.00;96347.72;5033867;28;20336;-70
2022/04/26 06:07:21;;;;;;;48.40;44.03;;;;;;;9.88;100.00;96350.25;5034219;28;20197;-71
2022/04/26 06:09:46;;;;;;;39.10;35.53;;;;;;;9.93;100.00;96349.56;5033940;28;20194;-72
2022/04/26 06:12:12;;;;;;;44.03;39.77;;;;;;;9.88;100.00;96352.06;5018722;28;20270;-71
2022/04/26 06:14:38;;;;;;;43.80;39.90;;;;;;;9.87;100.00;96363.56;5034067;28;20661;-70
2022/04/26 06:17:03;;;;;;;40.30;36.73;;;;;;;9.85;100.00;96361.19;5034306;28;20621;-73
2022/04/26 06:19:29;;;;;;;37.50;34.00;;;;;;;10.10;100.00;96362.69;5015996;28;20197;-72
2022/04/26 06:21:54;;;;;;;35.87;32.37;;;;;;;9.90;100.00;96356.06;5015745;28;20187;-71
2022/04/26 06:24:20;;;;;;;32.63;29.33;;;;;;;9.96;100.00;96351.72;5033786;28;20261;-70
2022/04/26 06:26:45;;;;;;;31.30;28.27;;;;;;;9.85;100.00;96361.19;5033696;28;20197;-70
2022/04/26 06:29:10;;;;;;;27.73;25.00;;;;;;;9.93;100.00;96360.03;5033431;28;20266;-71
2022/04/26 06:31:36;;;;;;;27.47;24.70;;;;;;;9.99;100.00;96354.66;5033867;28;20194;-71
2022/04/26 06:34:01;;;;;;;29.93;27.00;;;;;;;10.13;100.00;96357.00;5033443;28;20222;-70
2022/04/26 06:36:26;;;;;;;27.17;24.57;;;;;;;10.09;100.00;96361.09;5033702;28;20191;-71
2022/04/26 06:38:52;;;;;;;29.30;26.67;;;;;;;10.09;100.00;96361.09;5033297;28;20183;-70
2022/04/26 06:41:17;;;;;;;29.93;27.03;;;;;;;10.14;100.00;96351.53;5032839;28;20198;-71
2022/04/26 06:43:42;;;;;;;26.53;24.03;;;;;;;10.37;100.00;96358.50;5033299;28;20190;-71
2022/04/26 06:46:08;;;;;;;26.80;23.97;;;;;;;10.44;100.00;96364.41;5033257;28;20229;-68
2022/04/26 06:48:33;;;;;;;27.03;24.23;;;;;;;10.14;100.00;96369.84;5033590;28;20533;-70
2022/04/26 06:50:58;;;;;;;25.00;22.30;;;;;;;10.04;100.00;96369.66;5032908;28;20261;-71
2022/04/26 06:53:24;;;;;;;23.77;21.10;;;;;;;10.20;100.00;96366.31;5032986;28;20237;-71
2022/04/26 06:55:49;;;;;;;22.37;18.83;;;;;;;10.07;100.00;96363.19;5033256;28;20308;-69
2022/04/26 06:58:15;;;;;;;20.67;18.37;;;;;;;10.01;100.00;96360.47;5032755;28;20217;-68
2022/04/26 07:00:40;;;;;;;19.27;17.27;;;;;;;9.75;100.00;96355.75;5032935;28;20186;-76
2022/04/26 07:03:06;;;;;;;24.83;18.07;;;;;;;9.55;100.00;96371.03;5030080;28;20240;-76
2022/04/26 07:05:31;;;;;;;21.90;18.27;;;;;;;9.62;100.00;96384.00;5029018;28;20269;-72
2022/04/26 07:07:56;;;;;;;20.90;17.80;;;;;;;9.90;100.00;96371.78;5015450;28;20242;-72
2022/04/26 07:10:22;;;;;;;20.73;18.53;;;;;;;9.87;100.00;96371.41;5032935;28;20282;-73
2022/04/26 07:12:48;;;;;;;21.57;19.27;;;;;;;10.02;100.00;96369.91;5031828;28;20678;-73
2022/04/26 07:15:14;;;;;;;22.60;18.90;;;;;;;10.08;100.00;96368.19;5032664;28;20174;-73
2022/04/26 07:17:40;;;;;;;19.87;17.73;;;;;;;10.14;100.00;96366.47;5033198;28;20548;-73
2022/04/26 07:20:08;;;;;;;19.20;17.20;;;;;;;10.17;100.00;96360.78;5033086;28;20179;-73
2022/04/26 07:22:33;;;;;;;19.37;16.90;;;;;;;10.18;100.00;96368.41;5032531;28;20186;-73
2022/04/26 07:24:59;;;;;;;19.17;16.43;;;;;;;10.26;100.00;96362.78;5014800;28;20258;-73
2022/04/26 07:27:24;;;;;;;19.33;16.83;;;;;;;10.41;100.00;96359.66;5031560;28;20266;-73
2022/04/26 07:29:50;;;;;;;17.97;15.87;;;;;;;10.71;100.00;96354.09;5031663;28;20544;-73
2022/04/26 07:32:16;;;;;;;18.83;14.67;;;;;;;10.81;100.00;96343.81;5032562;28;20294;-73
2022/04/26 07:34:41;;;;;;;18.10;15.13;;;;;;;11.21;100.00;96349.63;5014910;28;20657;-73
2022/04/26 07:37:07;;;;;;;16.83;15.23;;;;;;;11.29;100.00;96342.41;5032038;28;20579;-73
2022/04/26 07:39:34;;;;;;;16.20;14.60;;;;;;;11.77;100.00;96341.72;5032558;28;20183;-73
2022/04/26 07:42:02;;;;;;;15.50;13.97;;;;;;;11.80;100.00;96357.81;5032679;28;20209;-73
2022/04/26 07:44:31;;;;;;;13.73;11.90;;;;;;;11.61;100.00;96369.59;5032302;28;20186;-73
2022/04/26 07:46:57;;;;;;;13.80;10.60;;;;;;;11.71;100.00;96374.97;5031899;28;20193;-73
2022/04/26 07:49:26;;;;;;;11.00;9.83;;;;;;;11.53;100.00;96360.34;5032457;28;20284;-73
2022/04/26 07:51:52;;;;;;;10.03;9.03;;;;;;;11.60;100.00;96362.75;5032060;28;20171;-74
2022/04/26 07:54:18;;;;;;;11.27;9.90;;;;;;;11.72;100.00;96366.06;5031891;28;20210;-74
2022/04/26 07:56:44;;;;;;;8.83;7.93;;;;;;;11.23;100.00;96370.41;5031007;28;20197;-72
2022/04/26 07:59:10;;;;;;;7.90;7.10;;;;;;;11.02;100.00;96374.56;5031710;28;20190;-72
2022/04/26 08:01:36;;;;;;;8.93;7.67;;;;;;;10.97;100.00;96377.09;5032489;28;20229;-71
2022/04/26 08:04:02;;;;;;;9.60;8.00;;;;;;;11.33;100.00;96375.78;5032145;28;20249;-71
2022/04/26 08:06:27;;;;;;;8.20;7.40;;;;;;;11.59;100.00;96390.06;5032488;28;20179;-72
2022/04/26 08:08:54;;;;;;;9.00;7.40;;;;;;;11.79;100.00;96400.84;5032181;28;20657;-72
2022/04/26 08:11:20;;;;;;;8.13;7.33;;;;;;;11.83;99.64;96409.03;5032039;28;20185;-72
2022/04/26 08:13:46;;;;;;;10.20;7.50;;;;;;;11.31;100.00;96409.34;5031152;28;20211;-72
2022/04/26 08:16:12;;;;;;;9.60;7.97;;;;;;;11.19;100.00;96416.50;5032719;28;20189;-72
2022/04/26 08:18:37;;;;;;;8.60;7.70;;;;;;;11.32;100.00;96424.03;5033976;28;20662;-72
2022/04/26 08:21:05;;;;;;;8.73;7.90;;;;;;;11.09;100.00;96427.63;5035780;28;20222;-72
2022/04/26 08:23:31;;;;;;;9.20;7.60;;;;;;;11.08;100.00;96433.13;5035769;28;20209;-72
2022/04/26 08:28:41;;;;;;;8.67;7.87;;;;;;;11.33;99.00;96430.88;5035690;28;20597;-73
2022/04/26 08:31:07;;;;;;;8.27;7.37;;;;;;;11.31;90.96;96443.47;5035509;28;20261;-72
2022/04/26 08:33:34;;;;;;;7.93;7.07;;;;;;;11.33;94.60;96444.00;5035309;28;20249;-72
2022/04/26 08:36:01;;;;;;;8.03;7.23;;;;;;;11.57;94.29;96447.25;5035657;28;20178;-73
2022/04/26 08:38:27;;;;;;;8.37;7.60;;;;;;;11.51;92.26;96442.97;5035971;28;20245;-72
2022/04/26 08:40:52;;;;;;;8.33;7.20;;;;;;;11.52;91.33;96447.19;5035867;28;20190;-72
2022/04/26 08:43:18;;;;;;;8.73;7.00;;;;;;;11.68;91.56;96448.97;5035324;28;20929;-72
2022/04/26 08:45:46;;;;;;;7.27;6.53;;;;;;;11.95;90.51;96441.22;5035364;28;20207;-72
2022/04/26 08:51:05;;;;;;;7.50;6.80;;;;;;;12.35;89.40;96441.72;5035571;28;20533;-72
2022/04/26 08:53:32;;;;;;;7.10;6.10;;;;;;;12.59;86.54;96444.09;5034966;28;20616;-72
2022/04/26 08:56:01;;;;;;;7.17;6.47;;;;;;;12.47;86.99;96445.03;5035106;28;20178;-72
2022/04/26 08:58:32;;;;;;;7.63;6.93;;;;;;;12.27;87.27;96457.91;5035057;28;20190;-73
2022/04/26 09:01:13;;;;;;;8.10;6.33;;;;;;;12.53;86.26;96461.63;5034607;28;20183;-73
2022/04/26 09:03:55;;;;;;;7.67;6.87;;;;;;;12.39;86.71;96463.03;5034954;28;20305;-72
2022/04/26 09:06:21;;;;;;;10.13;6.67;;;;;;;12.11;84.09;96471.09;5035326;28;20313;-72
2022/04/26 09:08:48;;;;;;;6.37;5.77;;;;;;;12.64;83.81;96470.44;5034725;28;20262;-72
2022/04/26 09:11:27;;;;;;;6.77;6.17;;;;;;;12.61;85.61;96471.69;5034448;28;20672;-72
2022/04/26 09:13:54;;;;;;;7.27;6.50;;;;;;;12.94;83.49;96475.97;5034443;28;20683;-73
2022/04/26 09:16:22;;;;;;;7.10;6.40;;;;;;;13.25;83.20;96488.41;5034688;28;20191;-73
2022/04/26 09:18:54;;;;;;;7.37;6.10;;;;;;;13.12;78.74;96482.75;5035034;28;20548;-72
2022/04/26 09:21:20;;;;;;;7.87;6.03;;;;;;;13.42;80.24;96483.03;5034762;28;20182;-71
2022/04/26 09:23:47;;;;;;;7.40;5.50;;;;;;;12.97;79.35;96477.34;5034649;28;20246;-73
2022/04/26 09:26:15;;;;;;;8.13;5.33;;;;;;;13.21;76.54;96481.25;5035043;28;20187;-72
2022/04/26 09:28:45;;;;;;;6.57;5.57;;;;;;;12.72;78.80;96493.63;5034155;28;20218;-73
2022/04/26 09:31:18;;;;;;;5.80;5.30;;;;;;;12.81;76.57;96490.34;5034482;28;20217;-72
2022/04/26 09:33:47;;;;;;;7.23;5.10;;;;;;;12.61;73.56;96490.09;5034679;28;20289;-72
2022/04/26 09:36:14;;;;;;;6.57;5.37;;;;;;;12.46;71.85;96489.94;5034957;28;20186;-72
2022/04/26 09:38:47;;;;;;;8.53;5.60;;;;;;;12.69;70.93;96487.06;5034436;28;20194;-72
2022/04/26 09:41:13;;;;;;;5.80;5.23;;;;;;;12.78;70.64;96492.66;5032487;28;20191;-72
2022/04/26 09:43:38;;;;;;;6.20;5.50;;;;;;;12.90;71.33;96499.38;5034608;28;20197;-72
2022/04/26 09:46:04;;;;;;;7.40;5.40;;;;;;;13.35;70.89;96502.69;5016296;28;20282;-72
2022/04/26 09:48:35;;;;;;;6.90;5.93;;;;;;;13.47;68.39;96506.75;5034509;28;20179;-72
2022/04/26 09:51:00;;;;;;;7.67;5.90;;;;;;;13.02;69.27;96501.84;5034067;28;20498;-72
2022/04/26 09:53:26;;;;;;;6.00;5.47;;;;;;;13.36;69.76;96505.09;5034216;28;20213;-72
2022/04/26 09:55:59;;;;;;;9.20;5.37;;;;;;;13.57;69.26;96498.13;5034211;28;20273;-72
2022/04/26 09:58:28;;;;;;;7.87;5.30;;;;;;;13.77;67.12;96495.63;5034409;28;20663;-72
2022/04/26 10:00:58;;;;;;;5.40;4.90;;;;;;;14.21;66.23;96495.38;5034128;28;20190;-74
2022/04/26 10:03:30;;;;;;;5.43;4.93;;;;;;;14.25;64.75;96499.88;5033488;28;20241;-73
2022/04/26 10:06:00;;;;;;;5.50;5.00;;;;;;;14.47;65.19;96491.84;5033361;28;20199;-73
2022/04/26 10:08:31;;;;;;;8.10;5.20;;;;;;;14.05;63.02;96495.28;5033239;28;20174;-74
2022/04/26 10:10:58;;;;;;;5.33;4.80;;;;;;;14.72;63.32;96488.47;5017437;28;20269;-74
2022/04/26 10:13:42;;;;;;;4.20;3.80;;;;;;;14.27;59.15;96494.34;5032686;28;20201;-74
2022/04/26 10:16:21;;;;;;;4.93;4.00;;;;;;;14.43;58.86;96498.69;5033294;28;20614;-73
2022/04/26 10:18:48;;;;;;;4.10;3.70;;;;;;;14.31;55.63;96492.78;5033062;28;20179;-74
2022/04/26 10:21:22;;;;;;;7.00;3.53;;;;;;;14.48;56.86;96493.44;5032551;28;20633;-74
2022/04/26 10:23:51;;;;;;;4.30;3.90;;;;;;;15.13;56.52;96487.50;5032952;28;20200;-73
2022/04/26 10:26:22;;;;;;;3.87;3.53;;;;;;;15.24;54.72;96483.84;5032747;28;20186;-73
2022/04/26 10:29:06;;;;;;;4.23;3.00;;;;;;;15.51;53.54;96488.06;5032022;28;20290;-74
2022/04/26 10:31:40;;;;;;;3.93;3.47;;;;;;;15.89;52.80;96498.09;5032006;28;20186;-74
2022/04/26 10:34:18;;;;;;;5.10;3.70;;;;;;;15.63;50.84;96489.41;5015195;28;20202;-74
2022/04/26 10:36:47;;;;;;;3.60;3.30;;;;;;;15.42;54.28;96490.44;5032249;28;20201;-74
2022/04/26 10:39:12;;;;;;;3.63;3.33;;;;;;;15.36;53.22;96487.00;5014843;28;20549;-74
2022/04/26 10:41:45;;;;;;;3.83;3.43;;;;;;;15.39;54.85;96494.41;5031209;28;20189;-74
2022/04/26 10:44:13;;;;;;;5.30;3.60;;;;;;;15.06;54.12;96494.88;5032557;28;20563;-74
2022/04/26 10:46:50;;;;;;;5.03;3.83;;;;;;;15.22;53.83;96485.13;5032830;28;20202;-74
2022/04/26 10:49:24;;;;;;;4.33;3.83;;;;;;;14.88;54.40;96484.81;5032678;28;20214;-73
2022/04/26 10:51:55;;;;;;;7.27;3.83;;;;;;;15.43;53.60;96484.13;5032607;28;20205;-74
2022/04/26 10:54:46;;;;;;;3.60;3.23;;;;;;;15.38;53.56;96486.72;5031880;28;20238;-74
2022/04/26 10:57:16;;;;;;;6.70;3.90;;;;;;;15.99;51.31;96482.22;4992974;28;20302;-73
2022/04/26 10:59:42;;;;;;;4.47;3.57;;;;;;;16.31;51.99;96481.06;5032162;28;20597;-73
2022/04/26 11:02:18;;;;;;;3.73;3.43;;;;;;;16.46;49.43;96484.44;5032121;28;20600;-73
2022/04/26 11:04:45;;;;;;;3.77;3.47;;;;;;;15.54;50.07;96483.09;5010608;28;148466;-74
2022/04/26 11:07:18;;;;;;;3.60;3.30;;;;;;;15.46;51.05;96485.41;5031881;28;20199;-73
2022/04/26 11:09:54;;;;;;;4.30;3.17;;;;;;;15.39;49.01;96490.97;5033029;28;20197;-73
2022/04/26 11:12:25;;;;;;;3.97;3.40;;;;;;;14.21;54.32;96495.38;5015234;28;20206;-73
2022/04/26 11:14:53;;;;;;;3.43;3.13;;;;;;;14.48;51.88;96499.50;5033028;28;20665;-73
2022/04/26 11:17:22;;;;;;;4.57;3.47;;;;;;;14.29;51.26;96500.94;5031696;28;20274;-73
2022/04/26 11:19:53;;;;;;;4.27;3.17;;;;;;;14.55;51.78;96510.59;5031063;28;20320;-73
2022/04/26 11:22:19;;;;;;;3.27;2.63;;;;;;;14.88;48.85;96498.00;5032659;28;20297;-73
2022/04/26 11:30:29;;;;;;;3.70;2.97;;;;;;;14.33;50.80;96512.56;5017163;28;20274;-74
2022/04/26 11:33:08;;;;;;;8.67;5.33;;;;;;;13.22;59.51;96517.84;5032730;28;20239;-74
2022/04/26 11:35:34;;;;;;;6.70;5.40;;;;;;;13.38;61.75;96531.16;5032706;28;20198;-74
2022/04/26 11:38:13;;;;;;;6.30;5.70;;;;;;;13.08;63.36;96537.69;5032574;28;20178;-74
2022/04/26 11:40:41;;;;;;;6.50;5.90;;;;;;;13.42;62.97;96535.69;5032671;28;20170;-74
2022/04/26 11:43:37;;;;;;;5.93;5.43;;;;;;;13.52;63.85;96538.41;4998690;28;20209;-73
2022/04/26 11:46:04;;;;;;;7.00;6.30;;;;;;;13.22;65.00;96528.38;5032780;28;20186;-73
2022/04/26 11:48:33;;;;;;;6.70;5.83;;;;;;;13.03;64.98;96523.69;5030674;28;20186;-72
2022/04/26 11:50:59;;;;;;;6.27;5.67;;;;;;;12.94;65.40;96539.13;5032273;28;20585;-73
2022/04/26 11:53:27;;;;;;;7.93;6.00;;;;;;;12.53;65.24;96539.72;5030766;28;20194;-72
2022/04/26 11:55:52;;;;;;;6.17;5.47;;;;;;;12.36;66.54;96542.41;5031133;28;20606;-72
2022/04/26 11:58:20;;;;;;;6.27;5.67;;;;;;;12.54;63.99;96534.19;5031646;28;20265;-73
2022/04/26 12:00:52;;;;;;;6.50;5.40;;;;;;;12.49;64.96;96539.38;5032252;28;20190;-73
2022/04/26 12:03:20;;;;;;;6.60;6.00;;;;;;;12.38;64.85;96550.81;5031605;28;20309;-73
2022/04/26 12:05:50;;;;;;;6.47;5.30;;;;;;;12.33;66.34;96553.38;5031715;28;20182;-72
2022/04/26 12:08:16;;;;;;;5.67;5.13;;;;;;;12.50;65.63;96554.13;5032617;28;20179;-72
2022/04/26 12:10:41;;;;;;;6.00;5.40;;;;;;;12.23;66.23;96561.94;5032362;28;20285;-72
2022/04/26 12:13:06;;;;;;;7.53;5.30;;;;;;;11.81;67.23;96552.91;5031535;28;20548;-72
2022/04/26 12:15:34;;;;;;;6.67;4.90;;;;;;;12.78;64.13;96553.94;5031946;28;20885;-73
2022/04/26 12:18:15;;;;;;;4.57;4.17;;;;;;;13.01;62.30;96555.50;5031638;28;20190;-73
2022/04/26 12:20:57;;;;;;;4.30;3.90;;;;;;;13.04;62.39;96551.59;5031761;28;20280;-72
2022/04/26 12:23:24;;;;;;;5.10;4.00;;;;;;;13.14;62.36;96563.06;5031915;28;20222;-73
2022/04/26 12:26:04;;;;;;;4.87;4.37;;;;;;;13.07;61.83;96559.00;5031565;28;20186;-72
2022/04/26 12:28:30;;;;;;;6.63;3.90;;;;;;;12.96;61.01;96565.97;5031689;28;20549;-72
2022/04/26 12:30:56;;;;;;;6.40;4.47;;;;;;;12.65;63.33;96569.31;5031644;28;20336;-72
2022/04/26 12:33:32;;;;;;;5.50;4.67;;;;;;;12.18;66.70;96575.00;5031572;28;20301;-71
2022/04/26 12:36:03;;;;;;;5.50;5.00;;;;;;;12.01;67.54;96558.47;5031751;28;20175;-71
2022/04/26 12:38:29;;;;;;;6.10;4.80;;;;;;;12.19;68.39;96578.41;5032014;28;20698;-72
2022/04/26 12:41:05;;;;;;;7.90;5.37;;;;;;;12.52;67.34;96567.84;5031594;28;20174;-70
2022/04/26 12:43:32;;;;;;;5.17;4.67;;;;;;;12.38;65.43;96574.47;5031868;28;20175;-71
2022/04/26 12:46:02;;;;;;;8.97;6.03;;;;;;;11.97;67.82;96581.00;5031819;28;20278;-70
2022/04/26 12:51:14;;;;;;;7.60;5.07;;;;;;;11.40;67.21;96581.09;5030795;28;20186;-71
2022/04/26 12:53:40;;;;;;;4.97;4.13;;;;;;;11.01;66.62;96580.13;5003071;28;20572;-71
2022/04/26 12:56:10;;;;;;;6.87;3.90;;;;;;;10.70;73.63;96604.16;5031008;28;20248;-72
2022/04/26 12:58:38;;;;;;;5.03;4.47;;;;;;;10.13;85.02;96606.59;5031708;28;20262;-72
2022/04/26 13:01:05;;;;;;;5.47;4.57;;;;;;;9.47;89.39;96612.84;5029922;28;20191;-73
2022/04/26 13:03:31;;;;;;;4.80;4.30;;;;;;;9.29;91.21;96615.53;5030881;28;20214;-72
2022/04/26 13:06:24;;;;;;;5.90;4.17;;;;;;;9.08;95.03;96632.47;5035072;28;20186;-73
2022/04/26 13:08:51;;;;;;;4.57;3.13;;;;;;;8.85;97.41;96637.63;5013705;28;20230;-73
2022/04/26 13:11:18;;;;;;;3.93;3.53;;;;;;;8.99;97.80;96643.47;5034927;28;20212;-73
2022/04/26 13:13:46;;;;;;;6.40;3.60;;;;;;;9.11;100.00;96646.94;5034928;28;20210;-73
2022/04/26 13:16:11;;;;;;;4.83;4.43;;;;;;;9.30;100.00;96658.97;5034396;28;20712;-73
2022/04/26 13:18:38;;;;;;;4.20;3.87;;;;;;;9.41;100.00;96657.44;5034679;28;20217;-74
2022/04/26 13:21:04;;;;;;;5.53;4.93;;;;;;;9.37;100.00;96658.88;5033944;28;20213;-74
2022/04/26 13:23:32;;;;;;;5.83;5.33;;;;;;;9.63;100.00;96660.34;5034991;28;20687;-74
2022/04/26 13:25:58;;;;;;;6.37;5.77;;;;;;;9.76;100.00;96654.91;5034850;28;20274;-74
2022/04/26 13:28:24;;;;;;;8.97;6.10;;;;;;;10.11;98.79;96655.75;5034697;28;20635;-74
2022/04/26 13:30:49;;;;;;;5.07;4.67;;;;;;;10.75;100.00;96647.00;5033946;28;20210;-73
2022/04/26 13:33:14;;;;;;;4.60;4.20;;;;;;;10.65;96.79;96649.41;5033773;28;20210;-73
2022/04/26 13:35:40;;;;;;;4.00;3.70;;;;;;;10.60;94.14;96632.78;5034627;28;20191;-73
2022/04/26 13:38:16;;;;;;;4.70;3.80;;;;;;;11.03;94.89;96637.59;5034161;28;20189;-73
2022/04/26 13:40:43;;;;;;;3.77;3.47;;;;;;;11.26;94.65;96633.06;5034737;28;20177;-72
2022/04/26 13:43:09;;;;;;;4.40;4.00;;;;;;;11.60;95.28;96620.81;5033872;28;20586;-72
2022/04/26 13:45:35;;;;;;;4.00;3.70;;;;;;;11.34;91.64;96629.25;5034569;28;20669;-73
2022/04/26 13:48:08;;;;;;;4.00;3.70;;;;;;;11.66;90.57;96627.72;5033594;28;20528;-73
2022/04/26 13:50:33;;;;;;;3.60;3.30;;;;;;;11.62;92.96;96628.44;5034780;28;20175;-73
2022/04/26 13:52:59;;;;;;;3.80;3.50;;;;;;;11.60;91.93;96630.50;5032872;28;20247;-72
2022/04/26 13:55:26;;;;;;;4.07;3.77;;;;;;;11.52;85.83;96633.53;5015763;28;20206;-72
2022/04/26 13:57:52;;;;;;;3.90;3.60;;;;;;;11.71;88.10;96634.91;5034424;28;20186;-72
2022/04/26 14:00:18;;;;;;;4.50;3.57;;;;;;;11.89;88.05;96631.28;5034179;28;20285;-72
2022/04/26 14:02:48;;;;;;;3.93;3.37;;;;;;;11.84;86.03;96631.19;5033617;28;20274;-72
2022/04/26 14:05:15;;;;;;;3.10;2.80;;;;;;;11.30;77.53;96624.72;5034107;28;20233;-73
2022/04/26 14:07:40;;;;;;;4.67;2.90;;;;;;;11.19;80.71;96634.25;5033891;28;20182;-72
2022/04/26 14:10:07;;;;;;;6.47;3.27;;;;;;;11.40;82.65;96627.53;5034324;28;20236;-72
2022/04/26 14:12:34;;;;;;;3.43;2.70;;;;;;;11.56;82.35;96635.44;5034002;28;20309;-72
2022/04/26 14:23:11;;;;;;;2.60;2.40;;;;;;;12.14;72.50;96634.31;5032795;28;20529;-72
2022/04/26 14:25:38;;;;;;;2.87;2.57;;;;;;;12.27;73.53;96631.34;5033392;28;20277;-71
2022/04/26 14:28:04;;;;;;;3.40;2.50;;;;;;;12.93;72.30;96624.34;5032824;28;20183;-72
2022/04/26 14:30:30;;;;;;;2.60;2.40;;;;;;;12.79;68.52;96625.75;5015683;28;20179;-71
2022/04/26 14:32:55;;;;;;;2.60;2.40;;;;;;;12.64;63.81;96629.00;5032790;28;20232;-71
2022/04/26 14:35:21;;;;;;;4.40;2.47;;;;;;;12.45;63.50;96625.84;5032753;28;20198;-72
2022/04/26 14:37:48;;;;;;;2.67;2.47;;;;;;;12.72;64.93;96633.03;5033558;28;20269;-72
2022/04/26 14:40:14;;;;;;;2.30;2.10;;;;;;;13.20;65.05;96634.97;5032870;28;20304;-71
2022/04/26 14:42:45;;;;;;;2.50;2.03;;;;;;;13.30;61.66;96638.50;5016174;28;20190;-71
2022/04/26 14:45:10;;;;;;;3.33;2.27;;;;;;;13.37;62.26;96634.88;5032362;28;20258;-71
2022/04/26 14:47:36;;;;;;;2.70;2.50;;;;;;;12.73;62.67;96637.25;5016319;28;20268;-71
2022/04/26 14:50:04;;;;;;;3.50;2.83;;;;;;;12.44;61.43;96636.59;5033298;28;20659;-71
2022/04/26 14:52:30;;;;;;;2.73;2.53;;;;;;;12.31;64.03;96642.19;5032259;28;20229;-71
2022/04/26 14:54:57;;;;;;;4.67;2.30;;;;;;;12.20;63.75;96638.63;5032568;28;20210;-71
2022/04/26 14:57:23;;;;;;;2.97;2.67;;;;;;;12.32;62.30;96644.56;5032867;28;20184;-71
2022/04/26 14:59:48;;;;;;;2.90;2.60;;;;;;;11.96;62.01;96642.44;5032941;28;20194;-70
2022/04/26 15:02:17;;;;;;;3.43;3.10;;;;;;;12.15;63.32;96643.78;5032489;28;20194;-70
2022/04/26 15:04:47;;;;;;;2.70;2.50;;;;;;;11.79;62.89;96650.31;5032911;28;20292;-70
2022/04/26 15:07:13;;;;;;;3.93;2.43;;;;;;;11.92;63.27;96646.59;5032965;28;20348;-71
2022/04/26 15:09:52;;;;;;;3.00;2.70;;;;;;;11.59;63.06;96647.31;5032587;28;20214;-70
2022/04/26 15:17:50;;;;;;;2.47;2.27;;;;;;;12.81;59.52;96642.09;5032644;28;20281;-71
2022/04/26 15:20:18;;;;;;;5.30;2.50;;;;;;;12.72;58.70;96646.97;5032994;28;20187;-70
2022/04/26 15:22:44;;;;;;;2.27;2.07;;;;;;;13.04;60.31;96646.31;5014895;28;20220;-71
2022/04/26 15:25:10;;;;;;;2.43;2.23;;;;;;;12.75;59.99;96645.69;5031952;28;20600;-71
2022/04/26 15:27:40;;;;;;;2.60;2.30;;;;;;;12.93;59.16;96649.88;5032451;28;20197;-70
2022/04/26 15:30:08;;;;;;;4.60;2.47;;;;;;;12.57;60.70;96657.28;5032096;28;20194;-70
2022/04/26 15:32:34;;;;;;;2.57;2.37;;;;;;;12.25;60.13;96651.03;5014556;28;20281;-70
2022/04/26 15:35:00;;;;;;;3.10;2.80;;;;;;;12.20;61.55;96648.34;5032046;28;20198;-71